sensor_id;sensor_type;location;lat;lon;timestamp;temperature;humidity
5962;DHT22;3007;50.770;0.250;2023-03-24T00:00:32;10.50;99.90
5962;DHT22;3007;50.770;0.250;2023-03-24T00:02:59;10.50;99.90
5962;DHT22;3007;50.770;0.250;2023-03-24T00:05:27;10.50;99.90
5962;DHT22;3007;50.770;0.250;2023-03-24T00:07:56;10.50;99.90
5962;DHT22;3007;50.770;0.250;2023-03-24T00:10:25;10.50;99.90
5962;DHT22;3007;50.770;0.250;2023-03-24T00:12:55;10.50;99.90
5962;DHT22;3007;50.770;0.250;2023-03-24T00:15:24;10.50;99.90
5962;DHT22;3007;50.770;0.250;2023-03-24T00:17:51;10.50;99.90
5962;DHT22;3007;50.770;0.250;2023-03-24T00:20:21;10.50;99.90
5962;DHT22;3007;50.770;0.250;2023-03-24T00:22:52;10.50;99.90
5962;DHT22;3007;50.770;0.250;2023-03-24T00:25:25;10.50;99.90
5962;DHT22;3007;50.770;0.250;2023-03-24T00:27:53;10.60;99.90
5962;DHT22;3007;50.770;0.250;2023-03-24T00:30:20;10.50;99.90
5962;DHT22;3007;50.770;0.250;2023-03-24T00:32:49;10.60;99.90
5962;DHT22;3007;50.770;0.250;2023-03-24T00:35:17;10.60;99.90
5962;DHT22;3007;50.770;0.250;2023-03-24T00:37:44;10.60;99.90
5962;DHT22;3007;50.770;0.250;2023-03-24T00:40:12;10.60;99.90
5962;DHT22;3007;50.770;0.250;2023-03-24T00:42:42;10.60;99.90
5962;DHT22;3007;50.770;0.250;2023-03-24T00:45:13;10.50;99.90
5962;DHT22;3007;50.770;0.250;2023-03-24T00:47:40;10.60;99.90
5962;DHT22;3007;50.770;0.250;2023-03-24T00:50:13;10.60;99.90
5962;DHT22;3007;50.770;0.250;2023-03-24T00:52:41;10.60;99.90
5962;DHT22;3007;50.770;0.250;2023-03-24T00:55:12;10.60;99.90
5962;DHT22;3007;50.770;0.250;2023-03-24T00:57:42;10.60;99.90
5962;DHT22;3007;50.770;0.250;2023-03-24T01:00:15;10.50;99.90
5962;DHT22;3007;50.770;0.250;2023-03-24T01:02:45;10.60;99.90
5962;DHT22;3007;50.770;0.250;2023-03-24T01:05:13;10.50;99.90
5962;DHT22;3007;50.770;0.250;2023-03-24T01:07:42;10.50;99.90
5962;DHT22;3007;50.770;0.250;2023-03-24T01:10:12;10.50;99.90
5962;DHT22;3007;50.770;0.250;2023-03-24T01:12:40;10.40;99.90
5962;DHT22;3007;50.770;0.250;2023-03-24T01:15:14;10.40;99.90
5962;DHT22;3007;50.770;0.250;2023-03-24T01:17:42;10.40;99.90
5962;DHT22;3007;50.770;0.250;2023-03-24T01:20:11;10.40;99.90
5962;DHT22;3007;50.770;0.250;2023-03-24T01:22:40;10.30;99.90
5962;DHT22;3007;50.770;0.250;2023-03-24T01:25:11;10.20;99.90
5962;DHT22;3007;50.770;0.250;2023-03-24T01:27:40;10.10;99.90
5962;DHT22;3007;50.770;0.250;2023-03-24T01:30:12;10.10;99.90
5962;DHT22;3007;50.770;0.250;2023-03-24T01:32:39;10.00;99.90
5962;DHT22;3007;50.770;0.250;2023-03-24T01:35:07;10.00;99.90
5962;DHT22;3007;50.770;0.250;2023-03-24T01:37:34;9.90;99.90
5962;DHT22;3007;50.770;0.250;2023-03-24T01:40:01;9.90;99.90
5962;DHT22;3007;50.770;0.250;2023-03-24T01:42:31;9.90;99.90
5962;DHT22;3007;50.770;0.250;2023-03-24T01:45:00;9.90;99.90
5962;DHT22;3007;50.770;0.250;2023-03-24T01:47:29;9.90;99.90
5962;DHT22;3007;50.770;0.250;2023-03-24T01:49:59;9.80;99.90
5962;DHT22;3007;50.770;0.250;2023-03-24T01:52:29;9.90;99.90
5962;DHT22;3007;50.770;0.250;2023-03-24T01:54:59;9.80;99.90
5962;DHT22;3007;50.770;0.250;2023-03-24T01:57:30;9.80;99.90
5962;DHT22;3007;50.770;0.250;2023-03-24T01:59:59;9.90;99.90
5962;DHT22;3007;50.770;0.250;2023-03-24T02:02:30;9.80;99.90
5962;DHT22;3007;50.770;0.250;2023-03-24T02:05:01;9.80;99.90
5962;DHT22;3007;50.770;0.250;2023-03-24T02:07:32;9.90;99.90
5962;DHT22;3007;50.770;0.250;2023-03-24T02:10:00;9.80;99.90
5962;DHT22;3007;50.770;0.250;2023-03-24T02:12:28;9.80;99.90
5962;DHT22;3007;50.770;0.250;2023-03-24T02:14:55;9.80;99.90
5962;DHT22;3007;50.770;0.250;2023-03-24T02:17:46;9.70;99.90
5962;DHT22;3007;50.770;0.250;2023-03-24T02:20:51;9.70;99.90
5962;DHT22;3007;50.770;0.250;2023-03-24T02:23:56;9.60;99.90
5962;DHT22;3007;50.770;0.250;2023-03-24T02:30:07;9.40;99.90
5962;DHT22;3007;50.770;0.250;2023-03-24T02:36:23;9.30;99.90
5962;DHT22;3007;50.770;0.250;2023-03-24T02:42:17;9.30;99.90
5962;DHT22;3007;50.770;0.250;2023-03-24T02:44:53;9.30;99.90
5962;DHT22;3007;50.770;0.250;2023-03-24T02:47:24;9.30;99.90
5962;DHT22;3007;50.770;0.250;2023-03-24T02:50:00;9.30;99.90
5962;DHT22;3007;50.770;0.250;2023-03-24T02:52:33;9.30;99.90
5962;DHT22;3007;50.770;0.250;2023-03-24T02:55:09;9.40;99.90
5962;DHT22;3007;50.770;0.250;2023-03-24T02:57:42;9.40;99.90
5962;DHT22;3007;50.770;0.250;2023-03-24T03:00:13;9.40;99.90
5962;DHT22;3007;50.770;0.250;2023-03-24T03:02:45;9.40;99.90
5962;DHT22;3007;50.770;0.250;2023-03-24T03:05:18;9.40;99.90
5962;DHT22;3007;50.770;0.250;2023-03-24T03:07:49;9.40;99.90
5962;DHT22;3007;50.770;0.250;2023-03-24T03:10:20;9.40;99.90
5962;DHT22;3007;50.770;0.250;2023-03-24T03:12:51;9.40;99.90
5962;DHT22;3007;50.770;0.250;2023-03-24T03:15:22;9.30;99.90
5962;DHT22;3007;50.770;0.250;2023-03-24T03:17:52;9.30;99.90
5962;DHT22;3007;50.770;0.250;2023-03-24T03:20:24;9.20;99.90
5962;DHT22;3007;50.770;0.250;2023-03-24T03:22:58;9.20;99.90
5962;DHT22;3007;50.770;0.250;2023-03-24T03:25:31;9.10;99.90
5962;DHT22;3007;50.770;0.250;2023-03-24T03:28:01;9.10;99.90
5962;DHT22;3007;50.770;0.250;2023-03-24T03:30:33;9.10;99.90
5962;DHT22;3007;50.770;0.250;2023-03-24T03:33:05;9.10;99.90
5962;DHT22;3007;50.770;0.250;2023-03-24T03:35:35;9.20;99.90
5962;DHT22;3007;50.770;0.250;2023-03-24T03:38:10;9.10;99.90
5962;DHT22;3007;50.770;0.250;2023-03-24T03:40:48;9.10;99.90
5962;DHT22;3007;50.770;0.250;2023-03-24T03:43:16;9.00;99.90
5962;DHT22;3007;50.770;0.250;2023-03-24T03:45:43;9.00;99.90
5962;DHT22;3007;50.770;0.250;2023-03-24T03:48:10;9.00;99.90
5962;DHT22;3007;50.770;0.250;2023-03-24T03:50:37;9.00;99.90
5962;DHT22;3007;50.770;0.250;2023-03-24T03:53:05;9.00;99.90
5962;DHT22;3007;50.770;0.250;2023-03-24T03:55:32;9.00;99.90
5962;DHT22;3007;50.770;0.250;2023-03-24T03:58:02;8.90;99.90
5962;DHT22;3007;50.770;0.250;2023-03-24T04:00:29;8.90;99.90
5962;DHT22;3007;50.770;0.250;2023-03-24T04:03:19;8.80;99.90
5962;DHT22;3007;50.770;0.250;2023-03-24T04:05:53;8.80;99.90
5962;DHT22;3007;50.770;0.250;2023-03-24T04:08:35;8.70;99.90
5962;DHT22;3007;50.770;0.250;2023-03-24T04:14:21;8.60;99.90
5962;DHT22;3007;50.770;0.250;2023-03-24T04:17:01;8.50;99.90
5962;DHT22;3007;50.770;0.250;2023-03-24T04:19:42;8.50;99.90
5962;DHT22;3007;50.770;0.250;2023-03-24T04:22:21;8.40;99.90
5962;DHT22;3007;50.770;0.250;2023-03-24T04:24:53;8.40;99.90
5962;DHT22;3007;50.770;0.250;2023-03-24T04:27:26;8.40;99.90
5962;DHT22;3007;50.770;0.250;2023-03-24T04:30:04;8.40;99.90
5962;DHT22;3007;50.770;0.250;2023-03-24T04:32:38;8.40;99.90
5962;DHT22;3007;50.770;0.250;2023-03-24T04:35:12;8.40;99.90
5962;DHT22;3007;50.770;0.250;2023-03-24T04:37:46;8.40;99.90
5962;DHT22;3007;50.770;0.250;2023-03-24T04:40:15;8.30;99.90
5962;DHT22;3007;50.770;0.250;2023-03-24T04:42:45;8.40;99.90
5962;DHT22;3007;50.770;0.250;2023-03-24T04:45:15;8.40;99.90
5962;DHT22;3007;50.770;0.250;2023-03-24T04:47:46;8.40;99.90
5962;DHT22;3007;50.770;0.250;2023-03-24T04:50:27;8.50;99.90
5962;DHT22;3007;50.770;0.250;2023-03-24T04:52:55;8.60;99.90
5962;DHT22;3007;50.770;0.250;2023-03-24T04:55:44;8.60;99.90
5962;DHT22;3007;50.770;0.250;2023-03-24T04:58:14;8.60;99.90
5962;DHT22;3007;50.770;0.250;2023-03-24T05:00:43;8.60;99.90
5962;DHT22;3007;50.770;0.250;2023-03-24T05:03:10;8.60;99.90
5962;DHT22;3007;50.770;0.250;2023-03-24T05:05:38;8.70;99.90
5962;DHT22;3007;50.770;0.250;2023-03-24T05:08:06;8.80;99.90
5962;DHT22;3007;50.770;0.250;2023-03-24T05:10:34;8.90;99.90
5962;DHT22;3007;50.770;0.250;2023-03-24T05:13:01;9.00;99.90
5962;DHT22;3007;50.770;0.250;2023-03-24T05:15:28;9.00;99.90
5962;DHT22;3007;50.770;0.250;2023-03-24T05:17:56;9.10;99.90
5962;DHT22;3007;50.770;0.250;2023-03-24T05:20:23;9.10;99.90
5962;DHT22;3007;50.770;0.250;2023-03-24T05:22:50;9.20;99.90
5962;DHT22;3007;50.770;0.250;2023-03-24T05:25:18;9.20;99.90
5962;DHT22;3007;50.770;0.250;2023-03-24T05:27:46;9.20;99.90
5962;DHT22;3007;50.770;0.250;2023-03-24T05:30:14;9.20;99.90
5962;DHT22;3007;50.770;0.250;2023-03-24T05:32:41;9.20;99.90
5962;DHT22;3007;50.770;0.250;2023-03-24T05:35:09;9.20;99.90
5962;DHT22;3007;50.770;0.250;2023-03-24T05:37:36;9.20;99.90
5962;DHT22;3007;50.770;0.250;2023-03-24T05:40:04;9.20;99.90
5962;DHT22;3007;50.770;0.250;2023-03-24T05:42:31;9.20;99.90
5962;DHT22;3007;50.770;0.250;2023-03-24T05:44:58;9.10;99.90
5962;DHT22;3007;50.770;0.250;2023-03-24T05:47:25;9.10;99.90
5962;DHT22;3007;50.770;0.250;2023-03-24T05:49:52;9.00;99.90
5962;DHT22;3007;50.770;0.250;2023-03-24T05:52:20;9.00;99.90
5962;DHT22;3007;50.770;0.250;2023-03-24T05:54:47;8.90;99.90
5962;DHT22;3007;50.770;0.250;2023-03-24T05:57:17;9.00;99.90
5962;DHT22;3007;50.770;0.250;2023-03-24T05:59:45;8.90;99.90
5962;DHT22;3007;50.770;0.250;2023-03-24T06:02:12;8.90;99.90
5962;DHT22;3007;50.770;0.250;2023-03-24T06:04:39;8.90;99.90
5962;DHT22;3007;50.770;0.250;2023-03-24T06:07:11;8.80;99.90
5962;DHT22;3007;50.770;0.250;2023-03-24T06:09:40;8.80;99.90
5962;DHT22;3007;50.770;0.250;2023-03-24T06:12:12;8.80;99.90
5962;DHT22;3007;50.770;0.250;2023-03-24T06:14:39;8.80;99.90
5962;DHT22;3007;50.770;0.250;2023-03-24T06:17:06;8.80;99.90
5962;DHT22;3007;50.770;0.250;2023-03-24T06:19:33;8.90;99.90
5962;DHT22;3007;50.770;0.250;2023-03-24T06:22:03;8.90;99.90
5962;DHT22;3007;50.770;0.250;2023-03-24T06:24:30;9.00;99.90
5962;DHT22;3007;50.770;0.250;2023-03-24T06:26:59;9.00;99.90
5962;DHT22;3007;50.770;0.250;2023-03-24T06:29:27;9.10;99.90
5962;DHT22;3007;50.770;0.250;2023-03-24T06:31:55;9.10;99.90
5962;DHT22;3007;50.770;0.250;2023-03-24T06:34:22;9.10;99.90
5962;DHT22;3007;50.770;0.250;2023-03-24T06:36:50;9.30;99.90
5962;DHT22;3007;50.770;0.250;2023-03-24T06:39:17;9.50;99.90
5962;DHT22;3007;50.770;0.250;2023-03-24T06:41:44;9.70;99.90
5962;DHT22;3007;50.770;0.250;2023-03-24T06:44:13;9.70;99.90
5962;DHT22;3007;50.770;0.250;2023-03-24T06:46:40;9.70;99.90
5962;DHT22;3007;50.770;0.250;2023-03-24T06:49:07;9.70;99.90
5962;DHT22;3007;50.770;0.250;2023-03-24T06:51:34;9.60;99.90
5962;DHT22;3007;50.770;0.250;2023-03-24T06:54:01;9.70;99.90
5962;DHT22;3007;50.770;0.250;2023-03-24T06:56:28;10.10;99.90
5962;DHT22;3007;50.770;0.250;2023-03-24T06:58:56;10.50;99.90
5962;DHT22;3007;50.770;0.250;2023-03-24T07:01:24;10.90;99.90
5962;DHT22;3007;50.770;0.250;2023-03-24T07:03:51;11.20;99.90
5962;DHT22;3007;50.770;0.250;2023-03-24T07:06:19;11.50;99.90
5962;DHT22;3007;50.770;0.250;2023-03-24T07:08:47;11.80;99.90
5962;DHT22;3007;50.770;0.250;2023-03-24T07:11:14;11.90;99.90
5962;DHT22;3007;50.770;0.250;2023-03-24T07:13:41;11.80;99.90
5962;DHT22;3007;50.770;0.250;2023-03-24T07:16:08;11.70;99.90
5962;DHT22;3007;50.770;0.250;2023-03-24T07:18:36;11.90;99.90
5962;DHT22;3007;50.770;0.250;2023-03-24T07:21:04;12.10;99.90
5962;DHT22;3007;50.770;0.250;2023-03-24T07:23:31;12.40;99.90
5962;DHT22;3007;50.770;0.250;2023-03-24T07:25:58;12.70;99.90
5962;DHT22;3007;50.770;0.250;2023-03-24T07:28:25;12.90;99.90
5962;DHT22;3007;50.770;0.250;2023-03-24T07:30:52;12.90;99.90
5962;DHT22;3007;50.770;0.250;2023-03-24T07:33:19;12.70;99.90
5962;DHT22;3007;50.770;0.250;2023-03-24T07:35:47;12.80;99.90
5962;DHT22;3007;50.770;0.250;2023-03-24T07:38:14;12.90;99.90
5962;DHT22;3007;50.770;0.250;2023-03-24T07:40:41;13.00;99.90
5962;DHT22;3007;50.770;0.250;2023-03-24T07:43:08;13.20;99.90
5962;DHT22;3007;50.770;0.250;2023-03-24T07:45:35;13.30;99.90
5962;DHT22;3007;50.770;0.250;2023-03-24T07:48:02;13.40;99.90
5962;DHT22;3007;50.770;0.250;2023-03-24T07:50:30;13.50;99.90
5962;DHT22;3007;50.770;0.250;2023-03-24T07:52:58;13.70;99.90
5962;DHT22;3007;50.770;0.250;2023-03-24T07:55:25;13.80;99.90
5962;DHT22;3007;50.770;0.250;2023-03-24T07:57:52;13.90;99.90
5962;DHT22;3007;50.770;0.250;2023-03-24T08:00:20;13.90;99.90
5962;DHT22;3007;50.770;0.250;2023-03-24T08:02:51;14.00;99.90
5962;DHT22;3007;50.770;0.250;2023-03-24T08:05:18;14.10;99.90
5962;DHT22;3007;50.770;0.250;2023-03-24T08:07:48;14.20;99.90
5962;DHT22;3007;50.770;0.250;2023-03-24T08:10:20;14.30;99.90
5962;DHT22;3007;50.770;0.250;2023-03-24T08:12:48;14.50;99.90
5962;DHT22;3007;50.770;0.250;2023-03-24T08:15:16;14.60;99.90
5962;DHT22;3007;50.770;0.250;2023-03-24T08:17:43;14.70;99.90
5962;DHT22;3007;50.770;0.250;2023-03-24T08:20:11;14.60;99.90
5962;DHT22;3007;50.770;0.250;2023-03-24T08:22:39;14.40;99.90
5962;DHT22;3007;50.770;0.250;2023-03-24T08:25:07;14.10;99.90
5962;DHT22;3007;50.770;0.250;2023-03-24T08:27:36;13.90;99.90
5962;DHT22;3007;50.770;0.250;2023-03-24T08:30:07;13.90;99.90
5962;DHT22;3007;50.770;0.250;2023-03-24T08:32:35;14.10;99.90
5962;DHT22;3007;50.770;0.250;2023-03-24T08:35:02;14.00;99.90
5962;DHT22;3007;50.770;0.250;2023-03-24T08:37:29;13.90;99.90
5962;DHT22;3007;50.770;0.250;2023-03-24T08:39:56;13.70;99.90
5962;DHT22;3007;50.770;0.250;2023-03-24T08:42:30;13.50;99.90
5962;DHT22;3007;50.770;0.250;2023-03-24T08:44:59;13.50;99.90
5962;DHT22;3007;50.770;0.250;2023-03-24T08:47:27;13.50;99.90
5962;DHT22;3007;50.770;0.250;2023-03-24T08:49:55;13.60;99.90
5962;DHT22;3007;50.770;0.250;2023-03-24T08:52:23;13.70;99.90
5962;DHT22;3007;50.770;0.250;2023-03-24T08:54:50;13.80;99.90
5962;DHT22;3007;50.770;0.250;2023-03-24T08:57:17;13.70;99.90
5962;DHT22;3007;50.770;0.250;2023-03-24T08:59:46;13.60;99.90
5962;DHT22;3007;50.770;0.250;2023-03-24T09:02:14;13.40;99.90
5962;DHT22;3007;50.770;0.250;2023-03-24T09:04:42;13.30;99.90
5962;DHT22;3007;50.770;0.250;2023-03-24T09:07:10;13.20;99.90
5962;DHT22;3007;50.770;0.250;2023-03-24T09:09:37;13.10;99.90
5962;DHT22;3007;50.770;0.250;2023-03-24T09:12:05;13.00;99.90
5962;DHT22;3007;50.770;0.250;2023-03-24T09:14:32;13.00;99.90
5962;DHT22;3007;50.770;0.250;2023-03-24T09:16:59;13.00;99.90
5962;DHT22;3007;50.770;0.250;2023-03-24T09:19:27;12.90;99.90
5962;DHT22;3007;50.770;0.250;2023-03-24T09:21:54;12.70;99.90
5962;DHT22;3007;50.770;0.250;2023-03-24T09:24:21;12.60;99.90
5962;DHT22;3007;50.770;0.250;2023-03-24T09:26:48;12.60;99.90
5962;DHT22;3007;50.770;0.250;2023-03-24T09:29:16;12.60;99.90
5962;DHT22;3007;50.770;0.250;2023-03-24T09:31:43;12.60;99.90
5962;DHT22;3007;50.770;0.250;2023-03-24T09:34:11;12.60;99.90
5962;DHT22;3007;50.770;0.250;2023-03-24T09:36:40;12.60;99.90
5962;DHT22;3007;50.770;0.250;2023-03-24T09:39:07;12.70;99.90
5962;DHT22;3007;50.770;0.250;2023-03-24T09:41:34;12.70;99.90
5962;DHT22;3007;50.770;0.250;2023-03-24T09:44:08;12.90;99.90
5962;DHT22;3007;50.770;0.250;2023-03-24T09:46:42;12.90;99.90
5962;DHT22;3007;50.770;0.250;2023-03-24T09:49:14;13.10;99.90
5962;DHT22;3007;50.770;0.250;2023-03-24T09:51:47;13.20;99.90
5962;DHT22;3007;50.770;0.250;2023-03-24T09:54:19;13.30;99.90
5962;DHT22;3007;50.770;0.250;2023-03-24T09:56:48;13.40;99.90
5962;DHT22;3007;50.770;0.250;2023-03-24T09:59:18;13.50;99.90
5962;DHT22;3007;50.770;0.250;2023-03-24T10:01:46;13.60;99.90
5962;DHT22;3007;50.770;0.250;2023-03-24T10:04:14;13.70;99.90
5962;DHT22;3007;50.770;0.250;2023-03-24T10:06:44;13.70;99.90
5962;DHT22;3007;50.770;0.250;2023-03-24T10:09:21;13.50;99.90
5962;DHT22;3007;50.770;0.250;2023-03-24T10:11:57;13.40;99.90
5962;DHT22;3007;50.770;0.250;2023-03-24T10:14:43;13.40;99.90
5962;DHT22;3007;50.770;0.250;2023-03-24T10:17:18;13.30;99.90
5962;DHT22;3007;50.770;0.250;2023-03-24T10:19:51;13.30;99.90
5962;DHT22;3007;50.770;0.250;2023-03-24T10:22:26;13.50;99.90
5962;DHT22;3007;50.770;0.250;2023-03-24T10:25:00;13.60;99.90
5962;DHT22;3007;50.770;0.250;2023-03-24T10:27:32;13.60;99.90
5962;DHT22;3007;50.770;0.250;2023-03-24T10:30:10;13.60;99.90
5962;DHT22;3007;50.770;0.250;2023-03-24T10:32:43;13.50;99.90
5962;DHT22;3007;50.770;0.250;2023-03-24T10:35:14;13.60;99.90
5962;DHT22;3007;50.770;0.250;2023-03-24T10:37:43;13.70;99.90
5962;DHT22;3007;50.770;0.250;2023-03-24T10:40:13;13.70;99.90
5962;DHT22;3007;50.770;0.250;2023-03-24T10:42:42;13.70;99.90
5962;DHT22;3007;50.770;0.250;2023-03-24T10:45:12;13.80;99.90
5962;DHT22;3007;50.770;0.250;2023-03-24T10:47:41;13.80;99.90
5962;DHT22;3007;50.770;0.250;2023-03-24T10:50:09;13.80;99.90
5962;DHT22;3007;50.770;0.250;2023-03-24T10:52:41;13.70;99.90
5962;DHT22;3007;50.770;0.250;2023-03-24T10:55:14;13.70;99.90
5962;DHT22;3007;50.770;0.250;2023-03-24T10:57:44;13.80;99.90
5962;DHT22;3007;50.770;0.250;2023-03-24T11:00:16;13.70;99.90
5962;DHT22;3007;50.770;0.250;2023-03-24T11:02:55;13.70;99.90
5962;DHT22;3007;50.770;0.250;2023-03-24T11:05:27;13.60;99.90
5962;DHT22;3007;50.770;0.250;2023-03-24T11:08:10;13.60;99.90
5962;DHT22;3007;50.770;0.250;2023-03-24T11:10:39;13.60;99.90
5962;DHT22;3007;50.770;0.250;2023-03-24T11:13:16;13.70;99.90
5962;DHT22;3007;50.770;0.250;2023-03-24T11:15:52;13.80;99.90
5962;DHT22;3007;50.770;0.250;2023-03-24T11:18:20;13.90;99.90
5962;DHT22;3007;50.770;0.250;2023-03-24T11:20:52;14.00;99.90
5962;DHT22;3007;50.770;0.250;2023-03-24T11:23:25;14.10;99.90
5962;DHT22;3007;50.770;0.250;2023-03-24T11:26:04;14.00;99.90
5962;DHT22;3007;50.770;0.250;2023-03-24T11:28:37;14.00;99.90
5962;DHT22;3007;50.770;0.250;2023-03-24T11:31:07;13.90;99.90
5962;DHT22;3007;50.770;0.250;2023-03-24T11:33:41;13.80;99.90
5962;DHT22;3007;50.770;0.250;2023-03-24T11:36:45;13.80;99.90
5962;DHT22;3007;50.770;0.250;2023-03-24T11:39:16;13.80;99.90
5962;DHT22;3007;50.770;0.250;2023-03-24T11:41:52;13.80;99.90
5962;DHT22;3007;50.770;0.250;2023-03-24T11:44:24;13.70;99.90
5962;DHT22;3007;50.770;0.250;2023-03-24T11:46:54;13.70;99.90
5962;DHT22;3007;50.770;0.250;2023-03-24T11:49:26;13.80;99.90
5962;DHT22;3007;50.770;0.250;2023-03-24T11:51:55;13.80;99.90
5962;DHT22;3007;50.770;0.250;2023-03-24T11:54:25;13.80;99.90
5962;DHT22;3007;50.770;0.250;2023-03-24T11:56:56;13.90;99.90
5962;DHT22;3007;50.770;0.250;2023-03-24T11:59:30;13.90;99.90
5962;DHT22;3007;50.770;0.250;2023-03-24T12:02:07;14.00;99.90
5962;DHT22;3007;50.770;0.250;2023-03-24T12:04:49;13.90;99.90
5962;DHT22;3007;50.770;0.250;2023-03-24T12:07:45;13.80;99.90
5962;DHT22;3007;50.770;0.250;2023-03-24T12:10:21;13.60;99.90
5962;DHT22;3007;50.770;0.250;2023-03-24T12:13:00;13.40;99.90
5962;DHT22;3007;50.770;0.250;2023-03-24T12:15:38;13.30;99.90
5962;DHT22;3007;50.770;0.250;2023-03-24T12:18:24;13.20;99.90
5962;DHT22;3007;50.770;0.250;2023-03-24T12:21:00;13.10;99.90
5962;DHT22;3007;50.770;0.250;2023-03-24T12:23:36;13.10;99.90
5962;DHT22;3007;50.770;0.250;2023-03-24T12:26:12;13.00;99.90
5962;DHT22;3007;50.770;0.250;2023-03-24T12:34:54;13.10;99.90
5962;DHT22;3007;50.770;0.250;2023-03-24T12:37:30;13.30;99.90
5962;DHT22;3007;50.770;0.250;2023-03-24T12:40:25;13.30;99.90
5962;DHT22;3007;50.770;0.250;2023-03-24T12:43:00;13.20;99.90
5962;DHT22;3007;50.770;0.250;2023-03-24T12:45:38;13.20;99.90
5962;DHT22;3007;50.770;0.250;2023-03-24T12:48:19;13.10;99.90
5962;DHT22;3007;50.770;0.250;2023-03-24T12:51:00;13.10;99.90
5962;DHT22;3007;50.770;0.250;2023-03-24T12:53:37;13.10;99.90
5962;DHT22;3007;50.770;0.250;2023-03-24T12:56:10;13.10;99.90
5962;DHT22;3007;50.770;0.250;2023-03-24T12:58:41;13.20;99.90
5962;DHT22;3007;50.770;0.250;2023-03-24T13:01:18;13.20;99.90
5962;DHT22;3007;50.770;0.250;2023-03-24T13:03:48;13.20;99.90
5962;DHT22;3007;50.770;0.250;2023-03-24T13:06:19;13.30;99.90
5962;DHT22;3007;50.770;0.250;2023-03-24T13:09:00;13.30;99.90
5962;DHT22;3007;50.770;0.250;2023-03-24T13:11:37;13.30;99.90
5962;DHT22;3007;50.770;0.250;2023-03-24T13:14:13;13.20;99.90
5962;DHT22;3007;50.770;0.250;2023-03-24T13:16:44;13.20;99.90
5962;DHT22;3007;50.770;0.250;2023-03-24T13:19:18;13.20;99.90
5962;DHT22;3007;50.770;0.250;2023-03-24T13:21:47;13.10;99.90
5962;DHT22;3007;50.770;0.250;2023-03-24T13:24:17;13.00;99.90
5962;DHT22;3007;50.770;0.250;2023-03-24T13:26:51;12.90;99.90
5962;DHT22;3007;50.770;0.250;2023-03-24T13:29:43;12.90;99.90
5962;DHT22;3007;50.770;0.250;2023-03-24T13:32:24;12.80;99.90
5962;DHT22;3007;50.770;0.250;2023-03-24T13:34:56;12.80;99.90
5962;DHT22;3007;50.770;0.250;2023-03-24T13:37:29;12.70;99.90
5962;DHT22;3007;50.770;0.250;2023-03-24T13:40:00;12.70;99.90
5962;DHT22;3007;50.770;0.250;2023-03-24T13:42:32;12.70;99.90
5962;DHT22;3007;50.770;0.250;2023-03-24T13:45:05;12.60;99.90
5962;DHT22;3007;50.770;0.250;2023-03-24T13:48:01;12.60;99.90
5962;DHT22;3007;50.770;0.250;2023-03-24T13:50:33;12.60;99.90
5962;DHT22;3007;50.770;0.250;2023-03-24T13:53:05;12.60;99.90
5962;DHT22;3007;50.770;0.250;2023-03-24T13:55:36;12.60;99.90
5962;DHT22;3007;50.770;0.250;2023-03-24T13:58:05;12.60;99.90
5962;DHT22;3007;50.770;0.250;2023-03-24T14:01:04;12.60;99.90
5962;DHT22;3007;50.770;0.250;2023-03-24T14:03:35;12.60;99.90
5962;DHT22;3007;50.770;0.250;2023-03-24T14:06:05;12.60;99.90
5962;DHT22;3007;50.770;0.250;2023-03-24T14:08:40;12.60;99.90
5962;DHT22;3007;50.770;0.250;2023-03-24T14:11:40;12.70;99.90
5962;DHT22;3007;50.770;0.250;2023-03-24T14:14:17;12.90;99.90
5962;DHT22;3007;50.770;0.250;2023-03-24T14:17:01;12.90;99.90
5962;DHT22;3007;50.770;0.250;2023-03-24T14:19:31;13.00;99.90
5962;DHT22;3007;50.770;0.250;2023-03-24T14:22:11;13.00;99.90
5962;DHT22;3007;50.770;0.250;2023-03-24T14:24:42;13.00;99.90
5962;DHT22;3007;50.770;0.250;2023-03-24T14:27:27;12.90;99.90
5962;DHT22;3007;50.770;0.250;2023-03-24T14:29:59;12.80;99.90
5962;DHT22;3007;50.770;0.250;2023-03-24T14:32:26;12.70;99.90
5962;DHT22;3007;50.770;0.250;2023-03-24T14:34:56;12.60;99.90
5962;DHT22;3007;50.770;0.250;2023-03-24T14:37:28;12.60;99.90
5962;DHT22;3007;50.770;0.250;2023-03-24T14:39:56;12.50;99.90
5962;DHT22;3007;50.770;0.250;2023-03-24T14:42:52;12.50;99.90
5962;DHT22;3007;50.770;0.250;2023-03-24T14:45:51;12.40;99.90
5962;DHT22;3007;50.770;0.250;2023-03-24T14:48:27;12.30;99.90
5962;DHT22;3007;50.770;0.250;2023-03-24T14:50:59;12.30;99.90
5962;DHT22;3007;50.770;0.250;2023-03-24T14:53:27;12.30;99.90
5962;DHT22;3007;50.770;0.250;2023-03-24T14:55:55;12.20;99.90
5962;DHT22;3007;50.770;0.250;2023-03-24T14:58:26;12.20;99.90
5962;DHT22;3007;50.770;0.250;2023-03-24T15:00:58;12.20;99.90
5962;DHT22;3007;50.770;0.250;2023-03-24T15:03:31;12.20;99.90
5962;DHT22;3007;50.770;0.250;2023-03-24T15:06:11;12.30;99.90
5962;DHT22;3007;50.770;0.250;2023-03-24T15:08:44;12.30;99.90
5962;DHT22;3007;50.770;0.250;2023-03-24T15:11:15;12.30;99.90
5962;DHT22;3007;50.770;0.250;2023-03-24T15:13:43;12.30;99.90
5962;DHT22;3007;50.770;0.250;2023-03-24T15:16:18;12.30;99.90
5962;DHT22;3007;50.770;0.250;2023-03-24T15:18:47;12.30;99.90
5962;DHT22;3007;50.770;0.250;2023-03-24T15:21:22;12.20;99.90
5962;DHT22;3007;50.770;0.250;2023-03-24T15:23:50;12.10;99.90
5962;DHT22;3007;50.770;0.250;2023-03-24T15:26:19;12.10;99.90
5962;DHT22;3007;50.770;0.250;2023-03-24T15:28:53;12.00;99.90
5962;DHT22;3007;50.770;0.250;2023-03-24T15:31:22;11.90;99.90
5962;DHT22;3007;50.770;0.250;2023-03-24T15:33:49;11.90;99.90
5962;DHT22;3007;50.770;0.250;2023-03-24T15:36:21;11.90;99.90
5962;DHT22;3007;50.770;0.250;2023-03-24T15:38:49;12.00;99.90
5962;DHT22;3007;50.770;0.250;2023-03-24T15:41:19;12.00;99.90
5962;DHT22;3007;50.770;0.250;2023-03-24T15:43:50;12.00;99.90
5962;DHT22;3007;50.770;0.250;2023-03-24T15:46:22;12.10;99.90
5962;DHT22;3007;50.770;0.250;2023-03-24T15:48:49;12.10;99.90
5962;DHT22;3007;50.770;0.250;2023-03-24T15:51:17;12.10;99.90
5962;DHT22;3007;50.770;0.250;2023-03-24T15:53:49;12.10;99.90
5962;DHT22;3007;50.770;0.250;2023-03-24T15:56:24;12.10;99.90
5962;DHT22;3007;50.770;0.250;2023-03-24T15:58:54;12.00;99.90
5962;DHT22;3007;50.770;0.250;2023-03-24T16:01:24;11.90;99.90
5962;DHT22;3007;50.770;0.250;2023-03-24T16:03:55;11.80;99.90
5962;DHT22;3007;50.770;0.250;2023-03-24T16:06:27;11.70;99.90
5962;DHT22;3007;50.770;0.250;2023-03-24T16:08:59;11.60;99.90
5962;DHT22;3007;50.770;0.250;2023-03-24T16:11:27;11.60;99.90
5962;DHT22;3007;50.770;0.250;2023-03-24T16:13:54;11.60;99.90
5962;DHT22;3007;50.770;0.250;2023-03-24T16:16:23;11.60;99.90
5962;DHT22;3007;50.770;0.250;2023-03-24T16:18:52;11.70;99.90
5962;DHT22;3007;50.770;0.250;2023-03-24T16:21:22;11.70;99.90
5962;DHT22;3007;50.770;0.250;2023-03-24T16:23:50;11.80;99.90
5962;DHT22;3007;50.770;0.250;2023-03-24T16:26:21;11.80;99.90
5962;DHT22;3007;50.770;0.250;2023-03-24T16:28:49;11.80;99.90
5962;DHT22;3007;50.770;0.250;2023-03-24T16:31:19;11.80;99.90
5962;DHT22;3007;50.770;0.250;2023-03-24T16:33:49;11.80;99.90
5962;DHT22;3007;50.770;0.250;2023-03-24T16:36:16;11.70;99.90
5962;DHT22;3007;50.770;0.250;2023-03-24T16:38:43;11.60;99.90
5962;DHT22;3007;50.770;0.250;2023-03-24T16:41:11;11.50;99.90
5962;DHT22;3007;50.770;0.250;2023-03-24T16:43:41;11.50;99.90
5962;DHT22;3007;50.770;0.250;2023-03-24T16:46:12;11.40;99.90
5962;DHT22;3007;50.770;0.250;2023-03-24T16:48:40;11.30;99.90
5962;DHT22;3007;50.770;0.250;2023-03-24T16:51:11;11.30;99.90
5962;DHT22;3007;50.770;0.250;2023-03-24T16:53:39;11.30;99.90